createdAt,value
2018-04-30T00:00:58.178Z,43.23
2018-04-30T00:01:58.152Z,42.94
2018-04-30T00:02:58.124Z,43.14
2018-04-30T00:03:58.103Z,43.04
2018-04-30T00:04:58.073Z,43.04
2018-04-30T00:05:58.052Z,43.04
2018-04-30T00:06:58.022Z,43.33
2018-04-30T00:07:57.998Z,43.14
2018-04-30T00:08:57.976Z,43.43
2018-04-30T00:09:57.948Z,43.33
2018-04-30T00:10:57.923Z,43.43
2018-04-30T00:11:57.900Z,43.52
2018-04-30T00:12:57.880Z,43.62
2018-04-30T00:13:57.851Z,43.80
2018-04-30T00:14:57.828Z,44.17
2018-04-30T00:15:57.796Z,44.19
2018-04-30T00:16:57.777Z,43.90
2018-04-30T00:17:57.744Z,43.80
2018-04-30T00:18:57.720Z,43.43
2018-04-30T00:19:57.706Z,43.43
2018-04-30T00:20:57.667Z,43.50
2018-04-30T00:21:57.651Z,43.50
2018-04-30T00:22:57.620Z,43.79
2018-04-30T00:23:57.591Z,43.79
2018-04-30T00:24:57.571Z,41.11
2018-04-30T00:25:57.549Z,42.25
2018-04-30T00:26:57.522Z,42.44
2018-04-30T00:27:57.498Z,43.21
2018-04-30T00:28:57.466Z,43.21
2018-04-30T00:29:57.452Z,43.50
2018-04-30T00:30:57.422Z,43.69
2018-04-30T00:31:57.392Z,43.98
2018-04-30T00:32:57.365Z,43.98
2018-04-30T00:33:57.348Z,43.88
2018-04-30T00:34:57.316Z,43.50
2018-04-30T00:35:57.297Z,43.98
2018-04-30T00:36:57.272Z,43.59
2018-04-30T00:37:57.241Z,43.79
2018-04-30T00:38:57.214Z,43.79
2018-04-30T00:39:57.192Z,43.88
2018-04-30T00:40:57.173Z,43.88
2018-04-30T00:41:57.137Z,43.98
2018-04-30T00:42:57.111Z,44.36
2018-04-30T00:43:57.092Z,44.36
2018-04-30T00:44:57.065Z,44.17
2018-04-30T00:45:57.041Z,44.00
2018-04-30T00:46:57.014Z,44.09
2018-04-30T00:47:56.993Z,44.26
2018-04-30T00:48:56.962Z,44.17
2018-04-30T00:49:56.942Z,44.26
2018-04-30T00:50:56.917Z,44.19
2018-04-30T00:51:56.889Z,44.26
2018-04-30T00:52:56.866Z,44.38
2018-04-30T00:53:56.838Z,44.38
2018-04-30T00:54:56.809Z,44.36
2018-04-30T00:55:56.792Z,44.07
2018-04-30T00:56:56.763Z,44.29
2018-04-30T00:57:56.734Z,44.09
2018-04-30T00:58:56.707Z,43.90
2018-04-30T00:59:56.687Z,44.29
2018-04-30T01:00:56.665Z,44.26
2018-04-30T01:01:56.630Z,44.17
2018-04-30T01:02:56.610Z,44.26
2018-04-30T01:03:56.584Z,44.36
2018-04-30T01:04:56.558Z,44.19
2018-04-30T01:05:56.535Z,44.19
2018-04-30T01:06:56.512Z,44.38
2018-04-30T01:07:56.484Z,44.29
2018-04-30T01:08:56.461Z,44.38
2018-04-30T01:09:56.431Z,44.19
2018-04-30T01:10:56.412Z,44.19
2018-04-30T01:11:56.383Z,44.09
2018-04-30T01:12:56.360Z,44.17
2018-04-30T01:13:56.333Z,44.45
2018-04-30T01:14:56.303Z,44.55
2018-04-30T01:15:56.285Z,44.55
2018-04-30T01:16:56.261Z,44.38
2018-04-30T01:17:56.236Z,44.45
2018-04-30T01:18:56.204Z,44.38
2018-04-30T01:19:56.186Z,44.57
2018-04-30T01:20:56.158Z,44.29
2018-04-30T01:21:56.130Z,44.09
2018-04-30T01:22:56.112Z,44.48
2018-04-30T01:23:56.079Z,44.38
2018-04-30T01:24:56.056Z,44.19
2018-04-30T01:25:56.032Z,44.19
2018-04-30T01:26:56.013Z,44.57
2018-04-30T01:27:55.986Z,44.48
2018-04-30T01:28:55.957Z,44.29
2018-04-30T01:29:55.929Z,44.29
2018-04-30T01:30:55.903Z,44.19
2018-04-30T01:31:55.881Z,44.29
2018-04-30T01:32:55.854Z,44.38
2018-04-30T01:33:55.828Z,44.19
2018-04-30T01:34:55.804Z,44.29
2018-04-30T01:35:55.779Z,44.19
2018-04-30T01:36:55.753Z,44.29
2018-04-30T01:37:55.732Z,44.19
2018-04-30T01:38:55.709Z,44.38
2018-04-30T01:39:55.682Z,44.57
2018-04-30T01:40:55.661Z,44.86
2018-04-30T01:41:55.628Z,44.65
2018-04-30T01:42:55.604Z,44.57
2018-04-30T01:43:55.582Z,44.65
2018-04-30T01:44:55.555Z,44.48
2018-04-30T01:45:55.534Z,44.38
2018-04-30T01:46:55.513Z,44.48
2018-04-30T01:47:55.478Z,44.38
2018-04-30T01:48:55.457Z,44.86
2018-04-30T01:49:55.430Z,44.57
2018-04-30T01:50:55.405Z,44.74
2018-04-30T01:51:55.383Z,44.74
2018-04-30T01:52:55.353Z,44.65
2018-04-30T01:53:55.335Z,44.84
2018-04-30T01:54:55.302Z,44.65
2018-04-30T01:55:55.282Z,44.55
2018-04-30T01:56:55.260Z,44.55
2018-04-30T01:57:55.227Z,44.38
2018-04-30T01:58:55.200Z,44.55
2018-04-30T01:59:55.184Z,44.48
2018-04-30T02:00:55.156Z,44.48
2018-04-30T02:01:55.142Z,44.36
2018-04-30T02:02:55.110Z,44.67
2018-04-30T02:03:55.077Z,44.38
2018-04-30T02:04:55.061Z,44.26
2018-04-30T02:05:55.025Z,44.65
2018-04-30T02:06:55.016Z,44.57
2018-04-30T02:07:54.977Z,44.84
2018-04-30T02:08:54.959Z,44.55
2018-04-30T02:09:54.923Z,44.74
2018-04-30T02:10:54.901Z,44.84
2018-04-30T02:11:54.886Z,44.74
2018-04-30T02:12:54.850Z,44.74
2018-04-30T02:13:54.837Z,44.76
2018-04-30T02:14:54.811Z,44.65
2018-04-30T02:15:54.780Z,44.57
2018-04-30T02:16:54.758Z,44.67
2018-04-30T02:17:54.725Z,44.76
2018-04-30T02:18:54.699Z,44.76
2018-04-30T02:19:54.680Z,44.76
2018-04-30T02:20:54.656Z,44.67
2018-04-30T02:21:54.634Z,44.48
2018-04-30T02:22:54.601Z,44.74
2018-04-30T02:23:54.583Z,44.74
2018-04-30T02:24:54.550Z,44.67
2018-04-30T02:25:54.536Z,44.67
2018-04-30T02:26:54.509Z,44.76
2018-04-30T02:27:54.475Z,44.57
2018-04-30T02:28:54.460Z,44.57
2018-04-30T02:29:54.426Z,44.57
2018-04-30T02:30:54.413Z,44.48
2018-04-30T02:31:54.378Z,44.38
2018-04-30T02:32:54.359Z,44.48
2018-04-30T02:33:54.456Z,44.57
2018-04-30T02:34:54.304Z,44.29
2018-04-30T02:35:54.275Z,44.57
2018-04-30T02:36:54.251Z,44.57
2018-04-30T02:37:54.231Z,44.48
2018-04-30T02:38:54.209Z,44.38
2018-04-30T02:39:54.178Z,44.50
2018-04-30T02:40:54.160Z,44.38
2018-04-30T02:41:54.127Z,44.31
2018-04-30T02:42:54.102Z,44.50
2018-04-30T02:43:54.089Z,44.48
2018-04-30T02:44:54.054Z,44.19
2018-04-30T02:45:54.043Z,44.40
2018-04-30T02:46:54.005Z,44.40
2018-04-30T02:47:53.977Z,44.40
2018-04-30T02:48:53.963Z,44.12
2018-04-30T02:49:53.931Z,44.21
2018-04-30T02:50:53.903Z,44.21
2018-04-30T02:51:53.885Z,44.40
2018-04-30T02:52:53.861Z,44.40
2018-04-30T02:53:53.843Z,44.50
2018-04-30T02:54:53.808Z,44.50
2018-04-30T02:55:53.787Z,44.40
2018-04-30T02:56:53.759Z,44.50
2018-04-30T02:57:53.733Z,44.40
2018-04-30T02:58:53.714Z,44.59
2018-04-30T02:59:53.687Z,44.69
2018-04-30T03:00:53.660Z,44.69
2018-04-30T03:01:53.636Z,45.36
2018-04-30T03:02:53.607Z,45.26
2018-04-30T03:03:53.583Z,45.36
2018-04-30T03:04:53.557Z,45.26
2018-04-30T03:05:53.539Z,45.26
2018-04-30T03:06:53.508Z,45.45
2018-04-30T03:07:53.490Z,45.65
2018-04-30T03:08:53.460Z,45.65
2018-04-30T03:09:53.431Z,45.62
2018-04-30T03:10:53.416Z,45.84
2018-04-30T03:11:53.381Z,45.84
2018-04-30T03:12:53.364Z,45.65
2018-04-30T03:13:53.340Z,45.36
2018-04-30T03:14:53.311Z,45.65
2018-04-30T03:15:53.294Z,45.26
2018-04-30T03:16:53.264Z,45.36
2018-04-30T03:17:53.236Z,45.26
2018-04-30T03:18:53.210Z,45.17
2018-04-30T03:19:53.185Z,45.17
2018-04-30T03:20:53.165Z,45.17
2018-04-30T03:21:53.141Z,45.17
2018-04-30T03:22:53.114Z,45.17
2018-04-30T03:23:53.095Z,45.36
2018-04-30T03:24:53.062Z,45.65
2018-04-30T03:25:53.047Z,45.62
2018-04-30T03:26:53.018Z,46.10
2018-04-30T03:27:52.997Z,46.39
2018-04-30T03:28:52.963Z,46.67
2018-04-30T03:29:52.946Z,46.77
2018-04-30T03:30:52.915Z,46.96
2018-04-30T03:31:52.895Z,46.58
2018-04-30T03:32:52.872Z,46.75
2018-04-30T03:33:52.844Z,46.01
2018-04-30T03:34:52.814Z,46.46
2018-04-30T03:35:52.790Z,46.30
2018-04-30T03:36:52.769Z,46.75
2018-04-30T03:37:52.743Z,46.94
2018-04-30T03:38:52.718Z,46.77
2018-04-30T03:39:52.695Z,47.03
2018-04-30T03:40:52.675Z,46.96
2018-04-30T03:41:52.644Z,46.94
2018-04-30T03:42:52.622Z,46.84
2018-04-30T03:43:52.591Z,46.84
2018-04-30T03:44:52.572Z,46.56
2018-04-30T03:45:52.541Z,46.77
2018-04-30T03:46:52.513Z,46.77
2018-04-30T03:47:52.497Z,47.42
2018-04-30T03:48:52.465Z,47.23
2018-04-30T03:49:52.450Z,47.52
2018-04-30T03:50:52.426Z,47.13
2018-04-30T03:51:52.389Z,47.13
2018-04-30T03:52:52.376Z,47.23
2018-04-30T03:53:52.343Z,47.23
2018-04-30T03:54:52.313Z,47.13
2018-04-30T03:55:52.298Z,47.13
2018-04-30T03:56:52.269Z,46.75
2018-04-30T03:57:52.245Z,46.75
2018-04-30T03:58:52.217Z,46.94
2018-04-30T03:59:52.191Z,47.03
2018-04-30T04:00:52.165Z,46.94
2018-04-30T04:01:52.156Z,47.71
2018-04-30T04:02:52.122Z,48.35
2018-04-30T04:03:52.096Z,48.16
2018-04-30T04:04:52.071Z,48.35
2018-04-30T04:05:52.038Z,47.87
2018-04-30T04:06:52.013Z,47.58
2018-04-30T04:07:51.990Z,47.52
2018-04-30T04:08:51.961Z,48.25
2018-04-30T04:09:51.944Z,47.68
2018-04-30T04:10:51.914Z,48.25
2018-04-30T04:11:51.893Z,47.78
2018-04-30T04:12:51.862Z,47.68
2018-04-30T04:13:51.837Z,47.58
2018-04-30T04:14:51.812Z,47.49
2018-04-30T04:15:51.793Z,47.49
2018-04-30T04:16:51.770Z,47.49
2018-04-30T04:17:51.735Z,47.20
2018-04-30T04:18:51.715Z,47.30
2018-04-30T04:19:51.687Z,47.39
2018-04-30T04:20:51.660Z,47.49
2018-04-30T04:21:51.650Z,47.58
2018-04-30T04:22:51.613Z,47.39
2018-04-30T04:23:51.587Z,47.49
2018-04-30T04:24:51.561Z,47.11
2018-04-30T04:25:51.541Z,47.20
2018-04-30T04:26:51.511Z,47.18
2018-04-30T04:27:51.496Z,47.11
2018-04-30T04:28:51.456Z,47.30
2018-04-30T04:29:51.434Z,47.27
2018-04-30T04:30:51.406Z,47.37
2018-04-30T04:31:51.388Z,47.27
2018-04-30T04:32:51.356Z,47.08
2018-04-30T04:33:51.338Z,47.18
2018-04-30T04:34:51.312Z,47.08
2018-04-30T04:35:51.279Z,47.37
2018-04-30T04:36:51.267Z,47.37
2018-04-30T04:37:51.231Z,46.99
2018-04-30T04:38:51.204Z,46.99
2018-04-30T04:39:51.185Z,47.08
2018-04-30T04:40:51.155Z,47.18
2018-04-30T04:41:51.133Z,47.11
2018-04-30T04:42:51.108Z,47.08
2018-04-30T04:43:51.079Z,47.37
2018-04-30T04:44:51.062Z,47.37
2018-04-30T04:45:51.025Z,47.47
2018-04-30T04:46:51.002Z,47.27
2018-04-30T04:47:50.979Z,47.01
2018-04-30T04:48:50.952Z,47.01
2018-04-30T04:49:50.928Z,47.18
2018-04-30T04:50:50.902Z,47.18
2018-04-30T04:51:50.874Z,47.08
2018-04-30T04:52:50.850Z,47.18
2018-04-30T04:53:50.824Z,47.37
2018-04-30T04:54:50.797Z,47.08
2018-04-30T04:55:50.779Z,47.47
2018-04-30T04:56:50.745Z,47.18
2018-04-30T04:57:50.789Z,47.18
2018-04-30T04:58:50.702Z,47.37
2018-04-30T04:59:50.667Z,47.18
2018-04-30T05:00:50.652Z,47.18
2018-04-30T05:01:50.617Z,47.47
2018-04-30T05:02:50.602Z,47.47
2018-04-30T05:03:50.573Z,47.27
2018-04-30T05:04:50.544Z,47.18
2018-04-30T05:05:50.516Z,47.27
2018-04-30T05:06:50.496Z,47.56
2018-04-30T05:07:50.470Z,47.47
2018-04-30T05:08:50.444Z,47.56
2018-04-30T05:09:50.418Z,47.56
2018-04-30T05:10:50.448Z,47.27
2018-04-30T05:11:50.362Z,47.56
2018-04-30T05:12:50.349Z,47.37
2018-04-30T05:13:50.320Z,47.37
2018-04-30T05:14:50.297Z,47.18
2018-04-30T05:15:50.268Z,47.18
2018-04-30T05:16:50.233Z,47.56
2018-04-30T05:17:50.222Z,47.75
2018-04-30T05:18:50.188Z,47.85
2018-04-30T05:19:50.168Z,47.66
2018-04-30T05:20:50.219Z,48.04
2018-04-30T05:21:50.117Z,48.13
2018-04-30T05:22:50.088Z,48.13
2018-04-30T05:23:50.062Z,47.66
2018-04-30T05:24:50.034Z,47.66
2018-04-30T05:25:50.075Z,47.94
2018-04-30T05:26:49.986Z,48.33
2018-04-30T05:27:49.958Z,47.56
2018-04-30T05:28:49.928Z,47.75
2018-04-30T05:29:49.916Z,47.37
2018-04-30T05:30:49.891Z,48.23
2018-04-30T05:31:49.861Z,48.42
2018-04-30T05:32:49.855Z,48.33
2018-04-30T05:33:49.805Z,48.90
2018-04-30T05:34:49.787Z,48.99
2018-04-30T05:35:49.755Z,49.38
2018-04-30T05:36:49.725Z,49.38
2018-04-30T05:37:49.717Z,49.18
2018-04-30T05:38:49.681Z,49.28
2018-04-30T05:39:49.648Z,50.81
2018-04-30T05:40:49.633Z,52.53
2018-04-30T05:41:49.611Z,52.98
2018-04-30T05:42:49.581Z,53.84
2018-04-30T05:43:49.545Z,54.03
2018-04-30T05:44:49.534Z,54.89
2018-04-30T05:45:49.493Z,54.13
2018-04-30T05:46:49.475Z,54.32
2018-04-30T05:47:49.451Z,54.13
2018-04-30T05:48:49.436Z,53.84
2018-04-30T05:49:49.414Z,53.27
2018-04-30T05:50:50.137Z,54.41
2018-04-30T05:51:49.371Z,54.32
2018-04-30T05:52:49.317Z,55.08
2018-04-30T05:53:49.303Z,54.70
2018-04-30T05:54:49.272Z,54.79
2018-04-30T05:55:49.253Z,55.36
2018-04-30T05:56:49.234Z,56.13
2018-04-30T05:57:49.187Z,56.80
2018-04-30T05:58:49.161Z,55.46
2018-04-30T05:59:49.152Z,55.18
2018-04-30T06:00:49.116Z,54.89
2018-04-30T06:01:49.131Z,55.18
2018-04-30T06:02:49.061Z,54.99
2018-04-30T06:03:49.039Z,55.75
2018-04-30T06:04:49.010Z,56.32
2018-04-30T06:05:48.987Z,56.89
2018-04-30T06:06:49.052Z,56.32
2018-04-30T06:07:48.937Z,56.23
2018-04-30T06:08:48.915Z,55.84
2018-04-30T06:09:48.880Z,56.13
2018-04-30T06:10:48.860Z,56.13
2018-04-30T06:11:48.832Z,55.27
2018-04-30T06:12:48.809Z,54.22
2018-04-30T06:13:48.801Z,54.79
2018-04-30T06:14:48.755Z,54.03
2018-04-30T06:15:48.735Z,54.22
2018-04-30T06:16:48.709Z,55.08
2018-04-30T06:17:48.675Z,54.72
2018-04-30T06:18:48.655Z,54.82
2018-04-30T06:19:48.650Z,55.18
2018-04-30T06:20:48.622Z,55.36
2018-04-30T06:21:48.608Z,56.80
2018-04-30T06:22:48.574Z,55.75
2018-04-30T06:23:48.553Z,55.65
2018-04-30T06:24:48.527Z,56.80
2018-04-30T06:25:48.492Z,56.89
2018-04-30T06:26:48.539Z,56.70
2018-04-30T06:27:48.419Z,56.04
2018-04-30T06:28:48.403Z,56.13
2018-04-30T06:29:48.376Z,55.46
2018-04-30T06:30:48.343Z,55.46
2018-04-30T06:31:48.325Z,55.75
2018-04-30T06:32:48.318Z,55.46
2018-04-30T06:33:48.269Z,55.77
2018-04-30T06:34:48.243Z,55.30
2018-04-30T06:35:48.323Z,56.23
2018-04-30T06:36:48.200Z,56.60
2018-04-30T06:37:48.163Z,56.89
2018-04-30T06:38:48.141Z,56.70
2018-04-30T06:39:48.148Z,56.80
2018-04-30T06:40:48.090Z,56.89
2018-04-30T06:41:48.067Z,56.32
2018-04-30T06:42:48.044Z,56.23
2018-04-30T06:43:48.015Z,56.89
2018-04-30T06:44:47.993Z,58.04
2018-04-30T06:45:47.961Z,57.75
2018-04-30T06:46:47.948Z,57.18
2018-04-30T06:47:47.915Z,56.60
2018-04-30T06:48:47.891Z,55.27
2018-04-30T06:49:47.903Z,54.99
2018-04-30T06:50:47.862Z,55.08
2018-04-30T06:51:47.814Z,53.93
2018-04-30T06:52:47.806Z,54.22
2018-04-30T06:53:47.758Z,53.39
2018-04-30T06:54:47.881Z,53.10
2018-04-30T06:55:47.821Z,53.49
2018-04-30T06:56:47.681Z,53.45
2018-04-30T06:57:47.662Z,53.45
2018-04-30T06:58:47.635Z,53.08
2018-04-30T06:59:47.612Z,52.69
2018-04-30T07:00:47.585Z,52.40
2018-04-30T07:01:47.560Z,51.86
2018-04-30T07:02:47.525Z,51.48
2018-04-30T07:03:47.507Z,51.67
2018-04-30T07:04:47.474Z,52.15
2018-04-30T07:05:47.457Z,51.95
2018-04-30T07:06:47.430Z,52.15
2018-04-30T07:07:47.403Z,52.62
2018-04-30T07:08:47.380Z,52.72
2018-04-30T07:09:47.371Z,53.96
2018-04-30T07:10:47.343Z,54.63
2018-04-30T07:11:47.299Z,53.96
2018-04-30T07:12:47.285Z,55.11
2018-04-30T07:13:47.251Z,54.34
2018-04-30T07:14:47.251Z,53.39
2018-04-30T07:15:47.205Z,52.53
2018-04-30T07:16:47.171Z,52.24
2018-04-30T07:17:47.153Z,52.43
2018-04-30T07:18:47.123Z,53.10
2018-04-30T07:19:47.096Z,53.58
2018-04-30T07:20:47.071Z,53.49
2018-04-30T07:21:47.044Z,54.72
2018-04-30T07:22:47.019Z,54.91
2018-04-30T07:23:46.996Z,55.68
2018-04-30T07:24:46.972Z,55.84
2018-04-30T07:25:46.939Z,54.79
2018-04-30T07:26:46.910Z,55.36
2018-04-30T07:27:46.905Z,54.99
2018-04-30T07:28:46.860Z,56.23
2018-04-30T07:29:46.839Z,54.32
2018-04-30T07:30:46.812Z,54.89
2018-04-30T07:31:46.790Z,56.89
2018-04-30T07:32:46.766Z,56.13
2018-04-30T07:33:46.735Z,55.55
2018-04-30T07:34:46.716Z,54.99
2018-04-30T07:35:46.684Z,56.04
2018-04-30T07:36:46.654Z,56.41
2018-04-30T07:37:46.637Z,55.55
2018-04-30T07:38:46.605Z,55.46
2018-04-30T07:39:46.584Z,54.99
2018-04-30T07:40:46.562Z,54.60
2018-04-30T07:41:46.529Z,53.84
2018-04-30T07:42:46.507Z,53.93
2018-04-30T07:43:46.480Z,54.03
2018-04-30T07:44:46.458Z,54.13
2018-04-30T07:45:46.428Z,56.41
2018-04-30T07:46:46.421Z,57.28
2018-04-30T07:47:46.388Z,56.60
2018-04-30T07:48:46.359Z,56.70
2018-04-30T07:49:46.324Z,54.99
2018-04-30T07:50:46.298Z,56.60
2018-04-30T07:51:46.503Z,56.60
2018-04-30T07:52:46.253Z,57.65
2018-04-30T07:53:46.225Z,59.28
2018-04-30T07:54:46.202Z,59.09
2018-04-30T07:55:46.171Z,59.66
2018-04-30T07:56:46.144Z,57.94
2018-04-30T07:57:46.126Z,56.60
2018-04-30T07:58:46.096Z,56.60
2018-04-30T07:59:46.076Z,58.14
2018-04-30T08:00:46.109Z,56.99
2018-04-30T08:01:46.023Z,56.60
2018-04-30T08:02:46.061Z,56.13
2018-04-30T08:03:45.969Z,56.80
2018-04-30T08:04:45.982Z,58.14
2018-04-30T08:05:45.918Z,58.99
2018-04-30T08:06:45.892Z,58.23
2018-04-30T08:07:45.930Z,58.33
2018-04-30T08:08:45.835Z,57.65
2018-04-30T08:09:45.843Z,59.19
2018-04-30T08:10:45.785Z,58.42
2018-04-30T08:11:45.767Z,59.76
2018-04-30T08:12:45.766Z,61.29
2018-04-30T08:13:45.757Z,60.42
2018-04-30T08:14:45.731Z,58.23
2018-04-30T08:15:45.656Z,57.18
2018-04-30T08:16:45.631Z,59.06
2018-04-30T08:17:45.609Z,58.70
2018-04-30T08:18:45.579Z,58.90
2018-04-30T08:19:45.567Z,59.09
2018-04-30T08:20:45.528Z,58.61
2018-04-30T08:21:45.511Z,61.07
2018-04-30T08:22:45.485Z,60.68
2018-04-30T08:23:45.456Z,58.68
2018-04-30T08:24:45.498Z,57.56
2018-04-30T08:25:45.401Z,57.65
2018-04-30T08:26:45.597Z,58.70
2018-04-30T08:27:45.355Z,58.04
2018-04-30T08:28:45.323Z,57.18
2018-04-30T08:29:45.310Z,56.32
2018-04-30T08:30:45.269Z,56.60
2018-04-30T08:31:45.250Z,56.99
2018-04-30T08:32:45.224Z,57.18
2018-04-30T08:33:45.199Z,58.90
2018-04-30T08:34:45.170Z,59.56
2018-04-30T08:35:45.152Z,60.24
2018-04-30T08:36:45.233Z,60.24
2018-04-30T08:37:45.091Z,60.71
2018-04-30T08:38:45.071Z,60.97
2018-04-30T08:39:45.097Z,61.54
2018-04-30T08:40:45.022Z,61.54
2018-04-30T08:41:44.996Z,60.78
2018-04-30T08:42:44.978Z,60.58
2018-04-30T08:43:45.004Z,60.02
2018-04-30T08:44:44.921Z,59.19
2018-04-30T08:45:44.892Z,59.16
2018-04-30T08:46:44.862Z,60.24
2018-04-30T08:47:44.840Z,60.81
2018-04-30T08:48:44.812Z,60.14
2018-04-30T08:49:44.868Z,59.92
2018-04-30T08:50:44.764Z,59.85
2018-04-30T08:51:44.741Z,59.76
2018-04-30T08:52:44.778Z,59.56
2018-04-30T08:53:44.706Z,58.99
2018-04-30T08:54:44.663Z,59.19
2018-04-30T08:55:44.628Z,60.04
2018-04-30T08:56:44.667Z,61.76
2018-04-30T08:57:44.636Z,61.76
2018-04-30T08:58:44.609Z,60.33
2018-04-30T08:59:44.557Z,59.66
2018-04-30T09:00:44.856Z,60.14
2018-04-30T09:01:44.479Z,61.29
2018-04-30T09:02:44.455Z,60.42
2018-04-30T09:03:44.435Z,61.00
2018-04-30T09:04:44.404Z,61.76
2018-04-30T09:05:44.383Z,61.76
2018-04-30T09:06:44.357Z,63.03
2018-04-30T09:07:44.463Z,63.03
2018-04-30T09:08:44.313Z,64.81
2018-04-30T09:09:44.281Z,64.25
2018-04-30T09:10:44.279Z,65.87
2018-04-30T09:11:44.294Z,62.71
2018-04-30T09:12:44.202Z,63.70
2018-04-30T09:13:44.229Z,61.98
2018-04-30T09:14:44.145Z,60.93
2018-04-30T09:15:44.188Z,66.00
2018-04-30T09:16:44.099Z,64.37
2018-04-30T09:17:44.088Z,64.94
2018-04-30T09:18:44.107Z,66.56
2018-04-30T09:19:44.028Z,67.52
2018-04-30T09:20:44.118Z,66.76
2018-04-30T09:21:44.057Z,64.65
2018-04-30T09:22:43.948Z,64.94
2018-04-30T09:23:44.051Z,64.18
2018-04-30T09:24:43.944Z,65.71
2018-04-30T09:25:43.924Z,69.43
2018-04-30T09:26:43.839Z,72.20
2018-04-30T09:27:43.833Z,71.63
2018-04-30T09:28:43.840Z,69.62
2018-04-30T09:29:43.824Z,71.63
2018-04-30T09:30:43.799Z,68.48
2018-04-30T09:31:43.726Z,70.20
2018-04-30T09:32:43.754Z,68.86
2018-04-30T09:33:43.792Z,71.06
2018-04-30T09:34:43.764Z,74.02
2018-04-30T09:35:43.671Z,71.92
2018-04-30T09:36:43.591Z,71.44
2018-04-30T09:37:43.568Z,71.53
2018-04-30T09:38:43.545Z,69.34
2018-04-30T09:39:43.609Z,69.72
2018-04-30T09:40:43.489Z,69.43
2018-04-30T09:41:43.490Z,71.06
2018-04-30T09:42:43.460Z,73.83
2018-04-30T09:43:43.477Z,73.44
2018-04-30T09:44:43.409Z,73.92
2018-04-30T09:45:43.363Z,73.07
2018-04-30T09:46:43.334Z,71.34
2018-04-30T09:47:43.411Z,74.98
2018-04-30T09:48:43.280Z,74.21
2018-04-30T09:49:43.284Z,78.51
2018-04-30T09:50:43.236Z,77.74
2018-04-30T09:51:43.251Z,75.83
2018-04-30T09:52:43.234Z,75.93
2018-04-30T09:53:43.159Z,75.35
2018-04-30T09:54:43.169Z,77.65
2018-04-30T09:55:43.178Z,77.65
2018-04-30T09:56:43.089Z,76.31
2018-04-30T09:57:43.174Z,75.35
2018-04-30T09:58:43.040Z,74.59
2018-04-30T09:59:43.063Z,75.16
2018-04-30T10:00:42.986Z,74.78
2018-04-30T10:01:42.956Z,79.65
2018-04-30T10:02:42.929Z,73.73
2018-04-30T10:03:42.909Z,78.70
2018-04-30T10:04:42.937Z,80.70
2018-04-30T10:05:42.916Z,78.36
2018-04-30T10:06:42.900Z,77.87
2018-04-30T10:07:42.801Z,80.17
2018-04-30T10:08:42.785Z,80.55
2018-04-30T10:09:42.763Z,80.93
2018-04-30T10:10:42.726Z,79.06
2018-04-30T10:11:42.707Z,81.65
2018-04-30T10:12:42.676Z,83.17
2018-04-30T10:13:42.676Z,82.22
2018-04-30T10:14:42.633Z,82.12
2018-04-30T10:15:42.601Z,82.12
2018-04-30T10:16:42.645Z,83.08
2018-04-30T10:17:42.707Z,84.89
2018-04-30T10:18:42.524Z,83.17
2018-04-30T10:19:42.508Z,82.98
2018-04-30T10:20:42.480Z,84.23
2018-04-30T10:21:42.517Z,82.03
2018-04-30T10:22:42.512Z,82.79
2018-04-30T10:23:42.460Z,84.17
2018-04-30T10:24:42.416Z,83.31
2018-04-30T10:25:42.473Z,84.65
2018-04-30T10:26:42.333Z,83.31
2018-04-30T10:27:42.299Z,83.22
2018-04-30T10:28:42.347Z,81.49
2018-04-30T10:29:42.253Z,83.03
2018-04-30T10:30:42.361Z,82.97
2018-04-30T10:31:42.284Z,83.16
2018-04-30T10:32:42.268Z,82.68
2018-04-30T10:33:42.199Z,83.16
2018-04-30T10:34:42.217Z,82.78
2018-04-30T10:35:42.196Z,82.20
2018-04-30T10:36:42.123Z,81.92
2018-04-30T10:37:42.124Z,83.36
2018-04-30T10:38:42.057Z,83.54
2018-04-30T10:39:42.052Z,85.17
2018-04-30T10:40:42.017Z,83.26
2018-04-30T10:41:42.015Z,83.40
2018-04-30T10:42:41.933Z,83.12
2018-04-30T10:43:41.905Z,84.46
2018-04-30T10:44:41.882Z,83.22
2018-04-30T10:45:41.915Z,82.54
2018-04-30T10:46:41.829Z,82.74
2018-04-30T10:47:41.900Z,83.40
2018-04-30T10:48:41.806Z,82.83
2018-04-30T10:49:41.809Z,82.64
2018-04-30T10:50:41.740Z,82.74
2018-04-30T10:51:41.902Z,83.36
2018-04-30T10:52:41.746Z,83.45
2018-04-30T10:53:41.687Z,83.26
2018-04-30T10:54:41.635Z,83.73
2018-04-30T10:55:41.799Z,82.11
2018-04-30T10:56:41.579Z,82.20
2018-04-30T10:57:41.578Z,83.36
2018-04-30T10:58:41.531Z,82.97
2018-04-30T10:59:41.537Z,83.30
2018-04-30T11:00:41.555Z,81.96
2018-04-30T11:01:41.464Z,83.01
2018-04-30T11:02:41.515Z,82.63
2018-04-30T11:03:41.431Z,81.77
2018-04-30T11:04:41.389Z,82.73
2018-04-30T11:05:41.364Z,82.15
2018-04-30T11:06:41.414Z,81.86
2018-04-30T11:07:41.372Z,81.05
2018-04-30T11:08:41.287Z,81.92
2018-04-30T11:09:41.264Z,81.63
2018-04-30T11:10:41.249Z,82.20
2018-04-30T11:11:41.208Z,82.15
2018-04-30T11:12:41.193Z,81.96
2018-04-30T11:13:41.167Z,82.59
2018-04-30T11:14:41.134Z,82.63
2018-04-30T11:15:41.199Z,81.57
2018-04-30T11:16:41.166Z,82.53
2018-04-30T11:17:41.071Z,82.15
2018-04-30T11:18:41.103Z,80.43
2018-04-30T11:19:41.070Z,80.62
2018-04-30T11:20:41.085Z,80.90
2018-04-30T11:21:40.963Z,80.90
2018-04-30T11:22:40.990Z,80.90
2018-04-30T11:23:40.944Z,81.48
2018-04-30T11:24:40.956Z,81.96
2018-04-30T11:25:40.935Z,82.43
2018-04-30T11:26:40.843Z,82.06
2018-04-30T11:27:40.972Z,80.67
2018-04-30T11:28:40.884Z,81.57
2018-04-30T11:29:40.795Z,82.06
2018-04-30T11:30:40.743Z,82.24
2018-04-30T11:31:40.804Z,81.20
2018-04-30T11:32:40.756Z,80.87
2018-04-30T11:33:40.675Z,82.63
2018-04-30T11:34:40.650Z,81.00
2018-04-30T11:35:40.668Z,81.77
2018-04-30T11:36:40.660Z,80.96
2018-04-30T11:37:40.681Z,80.96
2018-04-30T11:38:40.546Z,79.72
2018-04-30T11:39:40.557Z,81.63
2018-04-30T11:40:40.608Z,81.57
2018-04-30T11:41:40.474Z,82.24
2018-04-30T11:42:40.447Z,81.77
2018-04-30T11:43:40.423Z,80.87
2018-04-30T11:44:40.405Z,81.20
2018-04-30T11:45:40.378Z,81.77
2018-04-30T11:46:40.357Z,81.96
2018-04-30T11:47:40.331Z,81.77
2018-04-30T11:48:40.318Z,82.15
2018-04-30T11:49:40.362Z,80.33
2018-04-30T11:50:40.258Z,80.14
2018-04-30T11:51:40.225Z,80.90
2018-04-30T11:52:40.208Z,78.89
2018-04-30T11:53:40.183Z,79.57
2018-04-30T11:54:40.161Z,80.90
2018-04-30T11:55:40.134Z,80.27
2018-04-30T11:56:40.106Z,80.27
2018-04-30T11:57:40.077Z,80.27
2018-04-30T11:58:40.063Z,79.51
2018-04-30T11:59:40.069Z,78.27
2018-04-30T12:00:40.064Z,78.88
2018-04-30T12:01:39.992Z,77.63
2018-04-30T12:02:39.966Z,75.43
2018-04-30T12:03:39.948Z,74.18
2018-04-30T12:04:39.908Z,74.18
2018-04-30T12:05:39.886Z,73.22
2018-04-30T12:06:39.861Z,73.51
2018-04-30T12:07:39.833Z,74.57
2018-04-30T12:08:39.812Z,70.06
2018-04-30T12:09:39.785Z,73.32
2018-04-30T12:10:39.761Z,71.50
2018-04-30T12:11:39.740Z,70.35
2018-04-30T12:12:39.712Z,71.40
2018-04-30T12:13:39.693Z,72.45
2018-04-30T12:14:39.662Z,74.85
2018-04-30T12:15:39.664Z,73.99
2018-04-30T12:16:39.647Z,74.15
2018-04-30T12:17:39.588Z,75.33
2018-04-30T12:18:39.568Z,73.61
2018-04-30T12:19:39.547Z,71.59
2018-04-30T12:20:39.521Z,71.59
2018-04-30T12:21:39.494Z,70.64
2018-04-30T12:22:39.475Z,65.75
2018-04-30T12:23:39.444Z,64.59
2018-04-30T12:24:39.425Z,63.16
2018-04-30T12:25:39.398Z,67.38
2018-04-30T12:26:39.390Z,67.57
2018-04-30T12:27:39.359Z,68.37
2018-04-30T12:28:39.376Z,65.97
2018-04-30T12:29:39.298Z,66.93
2018-04-30T12:30:39.271Z,67.89
2018-04-30T12:31:39.320Z,68.85
2018-04-30T12:32:39.226Z,67.60
2018-04-30T12:33:39.223Z,66.74
2018-04-30T12:34:39.209Z,67.32
2018-04-30T12:35:39.156Z,67.89
2018-04-30T12:36:39.137Z,63.57
2018-04-30T12:37:39.102Z,62.23
2018-04-30T12:38:39.140Z,62.13
2018-04-30T12:39:39.066Z,63.67
2018-04-30T12:40:39.034Z,61.37
2018-04-30T12:41:39.015Z,62.62
2018-04-30T12:42:38.992Z,63.26
2018-04-30T12:43:39.065Z,64.72
2018-04-30T12:44:39.003Z,64.79
2018-04-30T12:45:38.936Z,61.63
2018-04-30T12:46:38.945Z,62.20
2018-04-30T12:47:38.876Z,62.93
2018-04-30T12:48:38.892Z,61.21
2018-04-30T12:49:38.875Z,63.51
2018-04-30T12:50:38.844Z,63.00
2018-04-30T12:51:38.831Z,65.68
2018-04-30T12:52:38.743Z,67.60